N50SF EHGG-EDRY
Flight info
| Callsign | N50SF |
|---|---|
| Flight time | 1h 17m |
| Altitude | 23000 |
| Route | NAPRO Z739 DEGOM L603 BOMBI N850 RINEX Z54 NORFE |
| Aircraft | SF50/L-SDGRWY/L |
Departure
| Time | 2026-05-08 17:56 |
|---|---|
| Airport | Groningen Airport Eelde (EHGG) |
Arrival
| Time | 2026-05-08 19:14 |
|---|---|
| Airport | Speyer Airfield (EDRY) |
| Time | Latitude | Longitude | Altitude | Speed | Heading |
|---|---|---|---|---|---|
| 2026-05-08 17:37 | 53.12920 | 6.58511 | 13 ft | 0 kts | 304° |
| 2026-05-08 17:49 | 53.12923 | 6.58502 | 13 ft | 4 kts | 289° |
| 2026-05-08 17:49 | 53.12915 | 6.58448 | 13 ft | 11 kts | 241° |
| 2026-05-08 17:50 | 53.12842 | 6.58335 | 13 ft | 17 kts | 217° |
| 2026-05-08 17:50 | 53.12713 | 6.58250 | 13 ft | 16 kts | 142° |
| 2026-05-08 17:50 | 53.12654 | 6.58329 | 13 ft | 15 kts | 151° |
| 2026-05-08 17:50 | 53.12574 | 6.58237 | 14 ft | 17 kts | 232° |
| 2026-05-08 17:51 | 53.12492 | 6.58069 | 14 ft | 20 kts | 231° |
| 2026-05-08 17:51 | 53.12398 | 6.57871 | 14 ft | 23 kts | 217° |
| 2026-05-08 17:51 | 53.12236 | 6.57817 | 17 ft | 24 kts | 189° |
| 2026-05-08 17:51 | 53.12089 | 6.57688 | 16 ft | 27 kts | 233° |
| 2026-05-08 17:52 | 53.11966 | 6.57431 | 16 ft | 29 kts | 232° |
| 2026-05-08 17:52 | 53.11839 | 6.57155 | 16 ft | 31 kts | 230° |
| 2026-05-08 17:52 | 53.11591 | 6.56817 | 17 ft | 19 kts | 151° |
| 2026-05-08 17:53 | 53.11504 | 6.56882 | 18 ft | 13 kts | 192° |
| 2026-05-08 17:53 | 53.11430 | 6.56770 | 17 ft | 17 kts | 231° |
| 2026-05-08 17:53 | 53.11352 | 6.56611 | 16 ft | 19 kts | 231° |
| 2026-05-08 17:53 | 53.11261 | 6.56421 | 16 ft | 22 kts | 232° |
| 2026-05-08 17:54 | 53.11187 | 6.56196 | 17 ft | 22 kts | 259° |
| 2026-05-08 17:54 | 53.11166 | 6.56073 | 18 ft | 0 kts | 210° |
| 2026-05-08 17:55 | 53.11164 | 6.56071 | 18 ft | 2 kts | 207° |
| 2026-05-08 17:55 | 53.11125 | 6.56085 | 19 ft | 11 kts | 119° |
| 2026-05-08 17:55 | 53.11186 | 6.56257 | 14 ft | 34 kts | 53° |
| 2026-05-08 17:56 | 53.11461 | 6.56839 | 17 ft | 89 kts | 52° |
| 2026-05-08 17:56 | 53.11901 | 6.57771 | 180 ft | 111 kts | 53° |
| 2026-05-08 17:56 | 53.12393 | 6.58779 | 609 ft | 109 kts | 51° |
| 2026-05-08 17:56 | 53.12927 | 6.59691 | 1061 ft | 117 kts | 52° |
| 2026-05-08 17:57 | 53.13491 | 6.60850 | 1437 ft | 141 kts | 52° |
| 2026-05-08 17:57 | 53.14165 | 6.62200 | 1838 ft | 157 kts | 58° |
| 2026-05-08 17:57 | 53.14560 | 6.63868 | 2482 ft | 155 kts | 82° |
| 2026-05-08 17:57 | 53.14564 | 6.65659 | 3048 ft | 159 kts | 102° |
| 2026-05-08 17:58 | 53.14151 | 6.67363 | 3660 ft | 161 kts | 122° |
| 2026-05-08 17:58 | 53.13363 | 6.68693 | 4272 ft | 164 kts | 143° |
| 2026-05-08 17:58 | 53.12325 | 6.69503 | 4891 ft | 166 kts | 156° |
| 2026-05-08 17:58 | 53.11247 | 6.70263 | 5484 ft | 167 kts | 154° |
| 2026-05-08 17:59 | 53.10182 | 6.71017 | 6131 ft | 166 kts | 155° |
| 2026-05-08 17:59 | 53.09117 | 6.71766 | 6663 ft | 170 kts | 156° |
| 2026-05-08 17:59 | 53.08024 | 6.72524 | 7243 ft | 172 kts | 157° |
| 2026-05-08 17:59 | 53.06891 | 6.73271 | 7727 ft | 177 kts | 166° |
| 2026-05-08 18:00 | 53.06067 | 6.73204 | 8088 ft | 179 kts | 197° |
| 2026-05-08 18:00 | 53.03384 | 6.71343 | 9423 ft | 182 kts | 199° |
| 2026-05-08 18:00 | 53.02176 | 6.70657 | 9972 ft | 185 kts | 199° |
| 2026-05-08 18:01 | 53.00946 | 6.69958 | 10479 ft | 187 kts | 199° |
| 2026-05-08 18:01 | 52.99726 | 6.69261 | 10979 ft | 188 kts | 199° |
| 2026-05-08 18:01 | 52.98482 | 6.68552 | 11497 ft | 189 kts | 200° |
| 2026-05-08 18:01 | 52.97232 | 6.67835 | 11994 ft | 190 kts | 200° |
| 2026-05-08 18:02 | 52.95968 | 6.67115 | 12450 ft | 193 kts | 200° |
| 2026-05-08 18:02 | 52.95119 | 6.66634 | 12775 ft | 194 kts | 201° |
| 2026-05-08 18:02 | 52.93424 | 6.65670 | 13437 ft | 195 kts | 201° |
| 2026-05-08 18:02 | 52.92128 | 6.64933 | 13897 ft | 197 kts | 201° |
| 2026-05-08 18:03 | 52.90817 | 6.64188 | 14309 ft | 199 kts | 201° |
| 2026-05-08 18:03 | 52.89494 | 6.63438 | 14713 ft | 201 kts | 201° |
| 2026-05-08 18:03 | 52.88181 | 6.62695 | 15134 ft | 202 kts | 201° |
| 2026-05-08 18:03 | 52.86840 | 6.61931 | 15546 ft | 204 kts | 201° |
| 2026-05-08 18:04 | 52.85492 | 6.61166 | 15955 ft | 205 kts | 201° |
| 2026-05-08 18:04 | 52.84150 | 6.60405 | 16356 ft | 206 kts | 201° |
| 2026-05-08 18:04 | 52.82787 | 6.59631 | 16764 ft | 208 kts | 201° |
| 2026-05-08 18:04 | 52.81408 | 6.58851 | 17149 ft | 209 kts | 201° |
| 2026-05-08 18:05 | 52.80020 | 6.58069 | 17541 ft | 210 kts | 201° |
| 2026-05-08 18:05 | 52.78630 | 6.57284 | 17934 ft | 212 kts | 202° |
| 2026-05-08 18:05 | 52.77248 | 6.56504 | 18319 ft | 213 kts | 202° |
| 2026-05-08 18:05 | 52.75833 | 6.55707 | 18672 ft | 214 kts | 202° |
| 2026-05-08 18:06 | 52.74416 | 6.54906 | 19021 ft | 215 kts | 202° |
| 2026-05-08 18:06 | 52.72988 | 6.54103 | 19358 ft | 216 kts | 202° |
| 2026-05-08 18:06 | 52.71577 | 6.53308 | 19696 ft | 217 kts | 202° |
| 2026-05-08 18:06 | 52.70140 | 6.52499 | 20022 ft | 218 kts | 202° |
| 2026-05-08 18:07 | 52.68697 | 6.51686 | 20342 ft | 219 kts | 201° |
| 2026-05-08 18:07 | 52.67239 | 6.50865 | 20671 ft | 221 kts | 202° |
| 2026-05-08 18:07 | 52.65799 | 6.50055 | 20986 ft | 222 kts | 201° |
| 2026-05-08 18:07 | 52.64334 | 6.49238 | 21336 ft | 221 kts | 201° |
| 2026-05-08 18:08 | 52.62874 | 6.48420 | 21688 ft | 221 kts | 201° |
| 2026-05-08 18:08 | 52.61417 | 6.47603 | 22034 ft | 221 kts | 201° |
| 2026-05-08 18:08 | 52.59958 | 6.46788 | 22382 ft | 221 kts | 201° |
| 2026-05-08 18:08 | 52.58504 | 6.45977 | 22725 ft | 220 kts | 201° |
| 2026-05-08 18:09 | 52.57071 | 6.45174 | 23081 ft | 220 kts | 201° |
| 2026-05-08 18:09 | 52.55583 | 6.44340 | 23124 ft | 232 kts | 201° |
| 2026-05-08 18:09 | 52.54013 | 6.43460 | 23142 ft | 243 kts | 201° |
| 2026-05-08 18:09 | 52.52382 | 6.42548 | 23127 ft | 252 kts | 201° |
| 2026-05-08 18:10 | 52.50692 | 6.41606 | 23132 ft | 259 kts | 201° |
| 2026-05-08 18:10 | 52.48958 | 6.40638 | 23131 ft | 265 kts | 201° |
| 2026-05-08 18:10 | 52.47215 | 6.39668 | 23127 ft | 271 kts | 201° |
| 2026-05-08 18:10 | 52.45408 | 6.38664 | 23137 ft | 277 kts | 201° |
| 2026-05-08 18:11 | 52.43558 | 6.37637 | 23130 ft | 283 kts | 201° |
| 2026-05-08 18:11 | 52.41660 | 6.36582 | 23132 ft | 288 kts | 201° |
| 2026-05-08 18:11 | 52.39768 | 6.35533 | 23133 ft | 292 kts | 201° |
| 2026-05-08 18:11 | 52.37832 | 6.34463 | 23123 ft | 295 kts | 201° |
| 2026-05-08 18:12 | 52.35870 | 6.33378 | 23129 ft | 298 kts | 201° |
| 2026-05-08 18:12 | 52.33890 | 6.32281 | 23120 ft | 300 kts | 200° |
| 2026-05-08 18:12 | 52.31921 | 6.31191 | 23120 ft | 302 kts | 200° |
| 2026-05-08 18:12 | 52.29937 | 6.30096 | 23124 ft | 303 kts | 200° |
| 2026-05-08 18:13 | 52.27927 | 6.28990 | 23122 ft | 305 kts | 200° |
| 2026-05-08 18:13 | 52.25914 | 6.27881 | 23122 ft | 306 kts | 200° |
| 2026-05-08 18:13 | 52.23884 | 6.26761 | 23129 ft | 307 kts | 200° |
| 2026-05-08 18:13 | 52.21849 | 6.25644 | 23123 ft | 308 kts | 200° |
| 2026-05-08 18:14 | 52.19834 | 6.24539 | 23120 ft | 309 kts | 200° |
| 2026-05-08 18:14 | 52.17792 | 6.23418 | 23115 ft | 309 kts | 200° |
| 2026-05-08 18:14 | 52.15740 | 6.22292 | 23115 ft | 310 kts | 200° |
| 2026-05-08 18:14 | 52.13694 | 6.21172 | 23125 ft | 310 kts | 200° |
| 2026-05-08 18:15 | 52.11665 | 6.20063 | 23103 ft | 310 kts | 200° |
| 2026-05-08 18:15 | 52.09607 | 6.18939 | 23103 ft | 310 kts | 200° |
| 2026-05-08 18:15 | 52.07557 | 6.17817 | 23108 ft | 310 kts | 200° |
| 2026-05-08 18:15 | 52.05534 | 6.16712 | 23102 ft | 310 kts | 200° |
| 2026-05-08 18:16 | 52.03483 | 6.15595 | 23111 ft | 310 kts | 200° |
| 2026-05-08 18:16 | 52.01433 | 6.14478 | 23112 ft | 310 kts | 200° |
| 2026-05-08 18:16 | 51.99387 | 6.13366 | 23106 ft | 310 kts | 200° |
| 2026-05-08 18:16 | 51.97339 | 6.12254 | 23110 ft | 310 kts | 200° |
| 2026-05-08 18:17 | 51.95287 | 6.11141 | 23112 ft | 310 kts | 200° |
| 2026-05-08 18:17 | 51.93260 | 6.10041 | 23105 ft | 310 kts | 200° |
| 2026-05-08 18:17 | 51.91205 | 6.08936 | 23104 ft | 310 kts | 199° |
| 2026-05-08 18:17 | 51.89079 | 6.08321 | 23100 ft | 312 kts | 185° |
| 2026-05-08 18:18 | 51.86899 | 6.08527 | 23097 ft | 315 kts | 172° |
| 2026-05-08 18:18 | 51.84818 | 6.09528 | 23096 ft | 317 kts | 159° |
| 2026-05-08 18:18 | 51.82898 | 6.11315 | 23110 ft | 319 kts | 145° |
| 2026-05-08 18:18 | 51.81275 | 6.13789 | 23098 ft | 320 kts | 132° |
| 2026-05-08 18:19 | 51.79822 | 6.16485 | 23099 ft | 320 kts | 132° |
| 2026-05-08 18:19 | 51.78345 | 6.19183 | 23099 ft | 320 kts | 133° |
| 2026-05-08 18:19 | 51.76866 | 6.21875 | 23101 ft | 321 kts | 133° |
| 2026-05-08 18:19 | 51.75388 | 6.24581 | 23100 ft | 321 kts | 132° |
| 2026-05-08 18:20 | 51.73911 | 6.27281 | 23105 ft | 321 kts | 133° |
| 2026-05-08 18:20 | 51.72430 | 6.29983 | 23098 ft | 321 kts | 133° |
| 2026-05-08 18:20 | 51.70966 | 6.32644 | 23099 ft | 321 kts | 133° |
| 2026-05-08 18:20 | 51.69484 | 6.35341 | 23113 ft | 321 kts | 133° |
| 2026-05-08 18:21 | 51.68000 | 6.38039 | 23095 ft | 321 kts | 133° |
| 2026-05-08 18:21 | 51.66515 | 6.40734 | 23097 ft | 321 kts | 133° |
| 2026-05-08 18:21 | 51.65030 | 6.43426 | 23097 ft | 321 kts | 133° |
| 2026-05-08 18:21 | 51.63545 | 6.46114 | 23097 ft | 321 kts | 133° |
| 2026-05-08 18:22 | 51.62083 | 6.48762 | 23095 ft | 321 kts | 133° |
| 2026-05-08 18:22 | 51.60599 | 6.51449 | 23095 ft | 321 kts | 133° |
| 2026-05-08 18:22 | 51.59113 | 6.54136 | 23095 ft | 320 kts | 133° |
| 2026-05-08 18:22 | 51.57623 | 6.56822 | 23100 ft | 320 kts | 133° |
| 2026-05-08 18:23 | 51.56141 | 6.59496 | 23097 ft | 320 kts | 133° |
| 2026-05-08 18:23 | 51.54656 | 6.62174 | 23098 ft | 320 kts | 133° |
| 2026-05-08 18:23 | 51.53186 | 6.64815 | 23097 ft | 320 kts | 133° |
| 2026-05-08 18:23 | 51.51702 | 6.67484 | 23104 ft | 321 kts | 133° |
| 2026-05-08 18:24 | 51.50208 | 6.70167 | 23102 ft | 321 kts | 133° |
| 2026-05-08 18:24 | 51.48734 | 6.72808 | 23101 ft | 321 kts | 133° |
| 2026-05-08 18:24 | 51.47240 | 6.75483 | 23104 ft | 320 kts | 133° |
| 2026-05-08 18:24 | 51.45754 | 6.78144 | 23112 ft | 320 kts | 133° |
| 2026-05-08 18:25 | 51.44266 | 6.80808 | 23102 ft | 320 kts | 133° |
| 2026-05-08 18:25 | 51.42779 | 6.83466 | 23101 ft | 320 kts | 133° |
| 2026-05-08 18:25 | 51.41290 | 6.86125 | 23112 ft | 320 kts | 133° |
| 2026-05-08 18:25 | 51.40038 | 6.89033 | 23098 ft | 321 kts | 118° |
| 2026-05-08 18:26 | 51.39083 | 6.92278 | 23106 ft | 321 kts | 116° |
| 2026-05-08 18:26 | 51.38126 | 6.95513 | 23101 ft | 321 kts | 116° |
| 2026-05-08 18:26 | 51.37155 | 6.98738 | 23102 ft | 321 kts | 116° |
| 2026-05-08 18:26 | 51.36188 | 7.01973 | 23100 ft | 321 kts | 116° |
| 2026-05-08 18:27 | 51.35241 | 7.05161 | 23098 ft | 321 kts | 116° |
| 2026-05-08 18:27 | 51.34602 | 7.07303 | 23111 ft | 320 kts | 116° |
| 2026-05-08 18:27 | 51.33309 | 7.11614 | 23107 ft | 320 kts | 116° |
| 2026-05-08 18:27 | 51.32349 | 7.14822 | 23104 ft | 320 kts | 116° |
| 2026-05-08 18:28 | 51.31398 | 7.17998 | 23097 ft | 320 kts | 117° |
| 2026-05-08 18:28 | 51.30432 | 7.21214 | 23105 ft | 320 kts | 117° |
| 2026-05-08 18:28 | 51.29469 | 7.24417 | 23106 ft | 319 kts | 117° |
| 2026-05-08 18:28 | 51.28504 | 7.27617 | 23109 ft | 319 kts | 117° |
| 2026-05-08 18:29 | 51.27541 | 7.30810 | 23100 ft | 319 kts | 117° |
| 2026-05-08 18:29 | 51.26577 | 7.34008 | 23101 ft | 319 kts | 117° |
| 2026-05-08 18:29 | 51.25621 | 7.37166 | 23105 ft | 319 kts | 117° |
| 2026-05-08 18:29 | 51.24651 | 7.40363 | 23104 ft | 319 kts | 117° |
| 2026-05-08 18:30 | 51.23682 | 7.43559 | 23108 ft | 320 kts | 117° |
| 2026-05-08 18:30 | 51.22719 | 7.46734 | 23108 ft | 320 kts | 117° |
| 2026-05-08 18:30 | 51.21746 | 7.49935 | 23111 ft | 320 kts | 117° |
| 2026-05-08 18:30 | 51.20773 | 7.53136 | 23112 ft | 320 kts | 117° |
| 2026-05-08 18:31 | 51.19795 | 7.56343 | 23104 ft | 320 kts | 117° |
| 2026-05-08 18:31 | 51.18828 | 7.59511 | 23109 ft | 320 kts | 117° |
| 2026-05-08 18:31 | 51.17845 | 7.62728 | 23106 ft | 320 kts | 117° |
| 2026-05-08 18:31 | 51.16829 | 7.65839 | 23100 ft | 319 kts | 124° |
| 2026-05-08 18:32 | 51.15411 | 7.68542 | 23105 ft | 317 kts | 137° |
| 2026-05-08 18:32 | 51.13694 | 7.70736 | 23110 ft | 315 kts | 144° |
| 2026-05-08 18:32 | 51.11949 | 7.72860 | 23110 ft | 316 kts | 144° |
| 2026-05-08 18:32 | 51.10232 | 7.74982 | 23112 ft | 316 kts | 144° |
| 2026-05-08 18:33 | 51.08487 | 7.77129 | 23108 ft | 316 kts | 144° |
| 2026-05-08 18:33 | 51.06732 | 7.79270 | 23106 ft | 316 kts | 144° |
| 2026-05-08 18:33 | 51.04984 | 7.81406 | 23106 ft | 316 kts | 144° |
| 2026-05-08 18:33 | 51.03262 | 7.83514 | 23107 ft | 316 kts | 144° |
| 2026-05-08 18:34 | 51.01518 | 7.85645 | 23105 ft | 316 kts | 144° |
| 2026-05-08 18:34 | 50.99774 | 7.87772 | 23105 ft | 316 kts | 144° |
| 2026-05-08 18:34 | 50.98030 | 7.89896 | 23104 ft | 316 kts | 144° |
| 2026-05-08 18:34 | 50.96282 | 7.92025 | 23111 ft | 316 kts | 144° |
| 2026-05-08 18:35 | 50.94539 | 7.94146 | 23105 ft | 316 kts | 144° |
| 2026-05-08 18:35 | 50.92811 | 7.96242 | 23101 ft | 316 kts | 144° |
| 2026-05-08 18:35 | 50.91064 | 7.98363 | 23105 ft | 316 kts | 144° |
| 2026-05-08 18:35 | 50.89316 | 8.00484 | 23099 ft | 316 kts | 144° |
| 2026-05-08 18:36 | 50.87584 | 8.02581 | 23101 ft | 316 kts | 144° |
| 2026-05-08 18:36 | 50.86402 | 8.04009 | 23101 ft | 316 kts | 144° |
| 2026-05-08 18:36 | 50.84678 | 8.06107 | 23099 ft | 316 kts | 143° |
| 2026-05-08 18:36 | 50.83139 | 8.08603 | 23094 ft | 318 kts | 129° |
| 2026-05-08 18:37 | 50.81902 | 8.11508 | 23100 ft | 319 kts | 125° |
| 2026-05-08 18:37 | 50.80678 | 8.14431 | 23099 ft | 319 kts | 126° |
| 2026-05-08 18:37 | 50.79438 | 8.17353 | 23099 ft | 319 kts | 126° |
| 2026-05-08 18:37 | 50.78204 | 8.20271 | 23099 ft | 319 kts | 126° |
| 2026-05-08 18:38 | 50.76974 | 8.23190 | 23100 ft | 319 kts | 126° |
| 2026-05-08 18:38 | 50.75756 | 8.26067 | 23101 ft | 319 kts | 126° |
| 2026-05-08 18:38 | 50.74518 | 8.28988 | 23103 ft | 319 kts | 126° |
| 2026-05-08 18:38 | 50.73280 | 8.31904 | 23103 ft | 319 kts | 126° |
| 2026-05-08 18:39 | 50.72039 | 8.34827 | 23105 ft | 320 kts | 126° |
| 2026-05-08 18:39 | 50.70800 | 8.37744 | 23106 ft | 319 kts | 126° |
| 2026-05-08 18:39 | 50.69365 | 8.40396 | 23102 ft | 316 kts | 139° |
| 2026-05-08 18:39 | 50.67616 | 8.42410 | 23094 ft | 314 kts | 152° |
| 2026-05-08 18:40 | 50.65683 | 8.44022 | 23112 ft | 313 kts | 154° |
| 2026-05-08 18:40 | 50.63764 | 8.45649 | 23112 ft | 314 kts | 154° |
| 2026-05-08 18:40 | 50.61836 | 8.47298 | 23113 ft | 314 kts | 154° |
| 2026-05-08 18:40 | 50.59922 | 8.48913 | 22830 ft | 318 kts | 154° |
| 2026-05-08 18:41 | 50.57992 | 8.50533 | 22379 ft | 310 kts | 154° |
| 2026-05-08 18:41 | 50.56108 | 8.52123 | 21903 ft | 305 kts | 154° |
| 2026-05-08 18:41 | 50.54229 | 8.53707 | 21454 ft | 307 kts | 154° |
| 2026-05-08 18:41 | 50.52337 | 8.55295 | 21014 ft | 309 kts | 154° |
| 2026-05-08 18:42 | 50.50434 | 8.56895 | 20584 ft | 310 kts | 154° |
| 2026-05-08 18:42 | 50.48552 | 8.58475 | 20162 ft | 310 kts | 154° |
| 2026-05-08 18:42 | 50.46641 | 8.60080 | 19733 ft | 311 kts | 154° |
| 2026-05-08 18:42 | 50.44724 | 8.61659 | 19312 ft | 309 kts | 156° |
| 2026-05-08 18:43 | 50.42692 | 8.62735 | 18902 ft | 308 kts | 166° |
| 2026-05-08 18:43 | 50.40627 | 8.63676 | 18502 ft | 310 kts | 165° |
| 2026-05-08 18:43 | 50.38561 | 8.64672 | 18085 ft | 310 kts | 165° |
| 2026-05-08 18:43 | 50.36524 | 8.65644 | 17681 ft | 311 kts | 165° |
| 2026-05-08 18:44 | 50.34439 | 8.66612 | 17280 ft | 313 kts | 165° |
| 2026-05-08 18:44 | 50.32346 | 8.67589 | 16885 ft | 313 kts | 165° |
| 2026-05-08 18:44 | 50.30271 | 8.68564 | 16494 ft | 308 kts | 165° |
| 2026-05-08 18:44 | 50.28220 | 8.69526 | 16101 ft | 306 kts | 165° |
| 2026-05-08 18:45 | 50.26205 | 8.70467 | 15728 ft | 305 kts | 165° |
| 2026-05-08 18:45 | 50.24165 | 8.71419 | 15354 ft | 305 kts | 165° |
| 2026-05-08 18:45 | 50.22127 | 8.72371 | 15104 ft | 304 kts | 165° |
| 2026-05-08 18:45 | 50.20097 | 8.73319 | 15105 ft | 305 kts | 165° |
| 2026-05-08 18:46 | 50.18077 | 8.74260 | 15102 ft | 305 kts | 165° |
| 2026-05-08 18:46 | 50.16045 | 8.75208 | 15102 ft | 304 kts | 165° |
| 2026-05-08 18:46 | 50.14016 | 8.76152 | 15103 ft | 304 kts | 165° |
| 2026-05-08 18:46 | 50.11983 | 8.77096 | 15103 ft | 304 kts | 165° |
| 2026-05-08 18:47 | 50.09953 | 8.78037 | 15104 ft | 304 kts | 165° |
| 2026-05-08 18:47 | 50.07917 | 8.78983 | 15099 ft | 304 kts | 165° |
| 2026-05-08 18:47 | 50.05854 | 8.79561 | 15089 ft | 301 kts | 178° |
| 2026-05-08 18:47 | 50.03769 | 8.79365 | 15092 ft | 299 kts | 191° |
| 2026-05-08 18:48 | 50.01740 | 8.78651 | 15094 ft | 299 kts | 194° |
| 2026-05-08 18:48 | 49.99738 | 8.77957 | 15094 ft | 299 kts | 193° |
| 2026-05-08 18:48 | 49.97703 | 8.77268 | 15094 ft | 299 kts | 193° |
| 2026-05-08 18:48 | 49.95670 | 8.76566 | 15094 ft | 299 kts | 194° |
| 2026-05-08 18:49 | 49.93638 | 8.75857 | 15092 ft | 299 kts | 194° |
| 2026-05-08 18:49 | 49.91629 | 8.75161 | 15083 ft | 299 kts | 193° |
| 2026-05-08 18:49 | 49.89596 | 8.74460 | 15082 ft | 299 kts | 194° |
| 2026-05-08 18:49 | 49.87562 | 8.73760 | 15082 ft | 298 kts | 194° |
| 2026-05-08 18:50 | 49.85527 | 8.73055 | 15083 ft | 298 kts | 193° |
| 2026-05-08 18:50 | 49.83512 | 8.72362 | 15082 ft | 298 kts | 193° |
| 2026-05-08 18:50 | 49.81482 | 8.71665 | 15080 ft | 298 kts | 193° |
| 2026-05-08 18:50 | 49.79453 | 8.70967 | 15076 ft | 298 kts | 193° |
| 2026-05-08 18:51 | 49.77455 | 8.70280 | 15071 ft | 298 kts | 193° |
| 2026-05-08 18:51 | 49.75424 | 8.69585 | 15071 ft | 298 kts | 193° |
| 2026-05-08 18:51 | 49.73389 | 8.68944 | 15066 ft | 297 kts | 189° |
| 2026-05-08 18:51 | 49.71348 | 8.68685 | 15072 ft | 297 kts | 185° |
| 2026-05-08 18:52 | 49.69284 | 8.68415 | 15076 ft | 298 kts | 186° |
| 2026-05-08 18:52 | 49.67219 | 8.68122 | 15076 ft | 298 kts | 186° |
| 2026-05-08 18:52 | 49.65146 | 8.67840 | 15076 ft | 298 kts | 186° |
| 2026-05-08 18:52 | 49.63075 | 8.67570 | 15069 ft | 298 kts | 186° |
| 2026-05-08 18:53 | 49.61003 | 8.67294 | 15068 ft | 298 kts | 186° |
| 2026-05-08 18:53 | 49.58964 | 8.67023 | 15067 ft | 298 kts | 186° |
| 2026-05-08 18:53 | 49.56901 | 8.66741 | 15069 ft | 298 kts | 186° |
| 2026-05-08 18:53 | 49.54833 | 8.66467 | 15067 ft | 298 kts | 186° |
| 2026-05-08 18:54 | 49.52763 | 8.66190 | 15070 ft | 298 kts | 186° |
| 2026-05-08 18:54 | 49.50692 | 8.65914 | 15069 ft | 298 kts | 186° |
| 2026-05-08 18:54 | 49.48623 | 8.65637 | 15069 ft | 298 kts | 186° |
| 2026-05-08 18:54 | 49.46559 | 8.65332 | 15067 ft | 297 kts | 188° |
| 2026-05-08 18:55 | 49.42629 | 8.63977 | 13457 ft | 284 kts | 193° |
| 2026-05-08 18:55 | 49.40707 | 8.63386 | 11885 ft | 282 kts | 191° |
| 2026-05-08 18:55 | 49.38799 | 8.62862 | 10363 ft | 274 kts | 192° |
| 2026-05-08 18:56 | 49.36944 | 8.62313 | 8717 ft | 268 kts | 193° |
| 2026-05-08 18:56 | 49.35139 | 8.61758 | 7171 ft | 261 kts | 192° |
| 2026-05-08 18:56 | 49.33447 | 8.61255 | 6893 ft | 236 kts | 192° |
| 2026-05-08 18:56 | 49.31769 | 8.60752 | 6701 ft | 245 kts | 192° |
| 2026-05-08 18:57 | 49.30169 | 8.60274 | 6408 ft | 230 kts | 192° |
| 2026-05-08 18:57 | 49.29134 | 8.59967 | 6201 ft | 218 kts | 192° |
| 2026-05-08 18:57 | 49.27280 | 8.59414 | 5843 ft | 194 kts | 191° |
| 2026-05-08 18:57 | 49.25984 | 8.59028 | 5603 ft | 188 kts | 190° |
| 2026-05-08 18:58 | 49.24702 | 8.58646 | 5354 ft | 189 kts | 190° |
| 2026-05-08 18:58 | 49.23397 | 8.58256 | 5103 ft | 192 kts | 189° |
| 2026-05-08 18:58 | 49.22076 | 8.57864 | 4866 ft | 194 kts | 189° |
| 2026-05-08 18:58 | 49.20745 | 8.57466 | 4623 ft | 195 kts | 189° |
| 2026-05-08 18:59 | 49.19429 | 8.57074 | 4382 ft | 195 kts | 188° |
| 2026-05-08 18:59 | 49.18095 | 8.56677 | 4157 ft | 195 kts | 188° |
| 2026-05-08 18:59 | 49.16772 | 8.56283 | 3997 ft | 190 kts | 188° |
| 2026-05-08 18:59 | 49.15478 | 8.55899 | 3991 ft | 191 kts | 188° |
| 2026-05-08 19:00 | 49.14153 | 8.55506 | 3994 ft | 194 kts | 188° |
| 2026-05-08 19:00 | 49.12820 | 8.55111 | 3997 ft | 195 kts | 188° |
| 2026-05-08 19:00 | 49.11503 | 8.54715 | 3996 ft | 195 kts | 188° |
| 2026-05-08 19:00 | 49.10174 | 8.54322 | 3998 ft | 194 kts | 188° |
| 2026-05-08 19:01 | 49.08846 | 8.53935 | 3998 ft | 194 kts | 187° |
| 2026-05-08 19:01 | 49.07533 | 8.54079 | 3989 ft | 189 kts | 160° |
| 2026-05-08 19:01 | 49.06289 | 8.54742 | 3991 ft | 188 kts | 158° |
| 2026-05-08 19:01 | 49.05039 | 8.55376 | 3995 ft | 191 kts | 160° |
| 2026-05-08 19:02 | 49.03777 | 8.56000 | 3997 ft | 189 kts | 156° |
| 2026-05-08 19:02 | 49.02822 | 8.57259 | 3988 ft | 183 kts | 115° |
| 2026-05-08 19:02 | 49.02627 | 8.59102 | 3984 ft | 181 kts | 80° |
| 2026-05-08 19:02 | 49.03225 | 8.60746 | 3987 ft | 181 kts | 44° |
| 2026-05-08 19:03 | 49.04388 | 8.61476 | 3989 ft | 188 kts | 6° |
| 2026-05-08 19:03 | 49.05635 | 8.60870 | 3987 ft | 196 kts | 324° |
| 2026-05-08 19:03 | 49.06425 | 8.59173 | 3995 ft | 198 kts | 298° |
| 2026-05-08 19:03 | 49.07031 | 8.57306 | 4001 ft | 199 kts | 298° |
| 2026-05-08 19:04 | 49.07669 | 8.55421 | 3996 ft | 198 kts | 301° |
| 2026-05-08 19:04 | 49.08602 | 8.53967 | 3984 ft | 192 kts | 339° |
| 2026-05-08 19:04 | 49.09887 | 8.53858 | 3987 ft | 186 kts | 18° |
| 2026-05-08 19:04 | 49.10907 | 8.54978 | 3985 ft | 182 kts | 56° |
| 2026-05-08 19:05 | 49.11230 | 8.56794 | 3984 ft | 181 kts | 96° |
| 2026-05-08 19:05 | 49.10545 | 8.58373 | 3987 ft | 187 kts | 146° |
| 2026-05-08 19:05 | 49.09321 | 8.59006 | 3996 ft | 189 kts | 163° |
| 2026-05-08 19:05 | 49.08043 | 8.59511 | 3995 ft | 190 kts | 162° |
| 2026-05-08 19:06 | 49.06760 | 8.60004 | 3998 ft | 191 kts | 168° |
| 2026-05-08 19:06 | 49.05476 | 8.59521 | 3989 ft | 198 kts | 215° |
| 2026-05-08 19:06 | 49.04816 | 8.57722 | 3989 ft | 200 kts | 264° |
| 2026-05-08 19:06 | 49.05230 | 8.55773 | 3988 ft | 196 kts | 314° |
| 2026-05-08 19:07 | 49.06387 | 8.54771 | 3988 ft | 191 kts | 346° |
| 2026-05-08 19:07 | 49.07660 | 8.54332 | 3994 ft | 189 kts | 351° |
| 2026-05-08 19:07 | 49.08951 | 8.53860 | 3996 ft | 191 kts | 348° |
| 2026-05-08 19:07 | 49.10246 | 8.53334 | 3996 ft | 192 kts | 348° |
| 2026-05-08 19:08 | 49.11538 | 8.52811 | 3998 ft | 187 kts | 348° |
| 2026-05-08 19:08 | 49.12732 | 8.52327 | 3988 ft | 167 kts | 348° |
| 2026-05-08 19:08 | 49.13792 | 8.51895 | 3962 ft | 151 kts | 348° |
| 2026-05-08 19:08 | 49.14820 | 8.51484 | 3764 ft | 153 kts | 349° |
| 2026-05-08 19:09 | 49.15832 | 8.51082 | 3540 ft | 147 kts | 349° |
| 2026-05-08 19:09 | 49.16766 | 8.50701 | 3313 ft | 136 kts | 350° |
| 2026-05-08 19:09 | 49.17708 | 8.50329 | 3099 ft | 145 kts | 350° |
| 2026-05-08 19:09 | 49.18682 | 8.49935 | 2870 ft | 144 kts | 350° |
| 2026-05-08 19:10 | 49.19650 | 8.49544 | 2644 ft | 142 kts | 351° |
| 2026-05-08 19:10 | 49.20591 | 8.49166 | 2423 ft | 140 kts | 351° |
| 2026-05-08 19:10 | 49.21521 | 8.48787 | 2199 ft | 136 kts | 350° |
| 2026-05-08 19:10 | 49.22424 | 8.48425 | 1988 ft | 132 kts | 350° |
| 2026-05-08 19:11 | 49.23296 | 8.48074 | 1788 ft | 130 kts | 351° |
| 2026-05-08 19:11 | 49.24168 | 8.47727 | 1580 ft | 127 kts | 350° |
| 2026-05-08 19:11 | 49.24957 | 8.47410 | 1388 ft | 104 kts | 351° |
| 2026-05-08 19:11 | 49.25606 | 8.47125 | 1181 ft | 93 kts | 349° |
| 2026-05-08 19:12 | 49.26203 | 8.46867 | 1065 ft | 88 kts | 349° |
| 2026-05-08 19:12 | 49.26801 | 8.46633 | 977 ft | 89 kts | 351° |
| 2026-05-08 19:12 | 49.27405 | 8.46427 | 854 ft | 88 kts | 349° |
| 2026-05-08 19:12 | 49.27996 | 8.46180 | 774 ft | 89 kts | 348° |
| 2026-05-08 19:13 | 49.28589 | 8.45934 | 611 ft | 87 kts | 348° |
| 2026-05-08 19:13 | 49.29157 | 8.45712 | 451 ft | 84 kts | 348° |
| 2026-05-08 19:13 | 49.29714 | 8.45488 | 334 ft | 77 kts | 347° |
| 2026-05-08 19:13 | 49.30148 | 8.45307 | 321 ft | 52 kts | 345° |
| 2026-05-08 19:14 | 49.30372 | 8.45216 | 320 ft | 17 kts | 346° |
| 2026-05-08 19:14 | 49.30452 | 8.45201 | 319 ft | 8 kts | 24° |
| 2026-05-08 19:14 | 49.30468 | 8.45242 | 320 ft | 0 kts | 74° |
| 2026-05-08 19:14 | 49.30475 | 8.45280 | 321 ft | 6 kts | 82° |
| 2026-05-08 19:15 | 49.30421 | 8.45322 | 322 ft | 13 kts | 166° |
| 2026-05-08 19:15 | 49.30331 | 8.45359 | 322 ft | 10 kts | 165° |
| 2026-05-08 19:15 | 49.30281 | 8.45379 | 322 ft | 7 kts | 166° |
| 2026-05-08 19:15 | 49.30235 | 8.45399 | 322 ft | 8 kts | 164° |
| 2026-05-08 19:16 | 49.30209 | 8.45444 | 322 ft | 5 kts | 120° |
| 2026-05-08 19:16 | 49.30200 | 8.45467 | 323 ft | 0 kts | 342° |